Latest Weather Observations for Ulladulla

IDN60901

Issued at 6:01 pm EST Monday 25 September 2017 (issued every 10 minutes, with the page automatically refreshed every 10 minutes)

About weather observations | Map of Canberra area stations | Latest observations for Canberra area | Other Formats
Station Details ID: 069138 Name: ULLADULLA AWS Lat: -35.36 Lon: 150.48 Height: 35.7 m
Data from the previous 72 hours. | See also: Recent months at Ulladulla
Date/Time
EST
Temp
°C
App
Temp
°C
Dew
Point
°C
Rel
Hum
%
Delta-T
°C
Wind Press
QNH
hPa
Press
MSL
hPa
Rain since
9am
mm
Dir  Spd
km/h
Gust
km/h
Spd
kts
Gust
kts
25/05:30pm 16.0 12.0 11.8 76 2.3 SSE 24 33 13 18 1008.7 1008.7 0.0
25/05:00pm 17.1 13.5 10.7 66 3.4 SSE 20 35 11 19 1007.3 1007.3 0.0
25/04:30pm 21.1 15.4 -0.8 23 9.6 WNW 19 35 10 19 1006.1 1006.0 0.0
25/04:00pm 22.1 16.6 -1.9 20 10.4 W 17 35 9 19 1005.6 1005.5 0.0
25/03:30pm 22.3 16.0 -1.1 21 10.3 WNW 22 50 12 27 1005.2 1005.1 0.0
25/03:09pm 22.3 14.8 -1.7 20 10.5 WNW 28 52 15 28 1004.8 1004.7 0.0
25/03:00pm 22.4 15.3 -1.6 20 10.5 WNW 26 48 14 26 1004.7 1004.6 0.0
25/02:38pm 22.4 14.8 -2.3 19 10.7 WNW 28 52 15 28 1004.8 1004.7 0.0
25/02:30pm 23.0 16.6 -1.8 19 10.9 WNW 22 41 12 22 1004.7 1004.6 0.0
25/02:00pm 22.8 16.1 -1.3 20 10.7 WNW 24 48 13 26 1004.5 1004.4 0.0
25/01:40pm 22.8 15.2 -2.0 19 10.8 WNW 28 50 15 27 1004.6 1004.5 0.0
25/01:30pm 23.2 16.4 -1.7 19 10.9 WNW 24 44 13 24 1004.4 1004.3 0.0
25/01:00pm 22.8 16.0 -2.0 19 10.8 WNW 24 44 13 24 1004.5 1004.4 0.0
25/12:30pm 23.5 17.3 -0.1 21 10.7 W 22 44 12 24 1004.6 1004.5 0.0
25/12:02pm 22.6 15.2 -0.8 21 10.4 W 28 61 15 33 1004.7 1004.6 0.0
25/12:00pm 22.7 15.7 -0.7 21 10.5 WNW 26 61 14 33 1004.7 1004.6 0.0
25/11:50am 22.1 14.6 -1.2 21 10.2 W 28 57 15 31 1004.7 1004.6 0.0
25/11:30am 22.3 16.6 0.8 24 9.8 WNW 20 50 11 27 1005.1 1005.0 0.0
25/11:00am 21.7 16.0 0.3 24 9.7 WNW 20 43 11 23 1005.3 1005.2 0.0
25/10:30am 21.7 16.4 -0.9 22 10.0 WNW 17 43 9 23 1005.3 1005.2 0.0
25/10:00am 21.4 16.4 -1.2 22 9.9 W 15 28 8 15 1005.4 1005.3 0.0
25/09:30am 21.0 15.3 -0.9 23 9.6 WSW 19 37 10 20 1005.4 1005.3 0.0
25/09:00am 20.6 15.2 -1.2 23 9.5 W 17 39 9 21 1005.5 1005.4 0.0
25/08:30am 19.9 15.3 -1.2 24 9.1 W 13 28 7 15 1005.4 1005.3 0.0
25/08:00am 19.1 14.4 -1.9 24 8.9 WNW 13 26 7 14 1005.3 1005.2 0.0
25/07:30am 18.6 15.4 -0.7 27 8.3 WNW 6 15 3 8 1005.2 1005.1 0.0
25/07:00am 17.9 15.6 0.6 31 7.6 W 2 7 1 4 1005.0 1004.9 0.0
25/06:30am 17.1 13.8 -0.1 31 7.4 WNW 7 19 4 10 1005.0 1004.9 0.0
25/06:00am 15.8 12.7 0.0 34 6.8 WNW 6 13 3 7 1004.8 1004.7 0.0
25/05:30am 15.7 13.3 -0.1 34 6.7 W 2 11 1 6 1004.5 1004.4 0.0
25/05:00am 16.1 13.3 -0.6 32 7.1 SW 4 13 2 7 1004.1 1004.0 0.0
25/04:30am 16.9 13.5 -0.3 31 7.4 W 7 20 4 11 1003.5 1003.4 0.0
25/04:00am 17.2 13.4 -0.5 30 7.6 WNW 9 24 5 13 1003.3 1003.2 0.0
25/03:30am 17.3 13.2 -0.4 30 7.6 WNW 11 20 6 11 1003.2 1003.1 0.0
25/03:00am 16.9 13.6 -1.2 29 7.6 W 6 13 3 7 1003.0 1002.9 0.0
25/02:30am 17.5 14.1 -0.7 29 7.8 WNW 7 19 4 10 1003.0 1002.9 0.0
25/02:00am 17.8 14.3 -1.4 27 8.1 W 7 20 4 11 1002.9 1002.8 0.0
25/01:30am 18.6 14.2 -2.3 24 8.7 W 11 24 6 13 1002.9 1002.8 0.0
25/01:00am 19.0 14.7 -2.0 24 8.9 W 11 24 6 13 1002.8 1002.7 0.0
25/12:30am 19.3 15.0 -1.7 24 8.9 W 11 24 6 13 1002.9 1002.8 0.0
25/12:00am 19.5 15.6 -1.6 24 9.0 W 9 20 5 11 1002.9 1002.8 0.0
 
Date/Time
EST
Temp
°C
App
Temp
°C
Dew
Point
°C
Rel
Hum
%
Delta-T
°C
Wind Press
QNH
hPa
Press
MSL
hPa
Rain since
9am
mm
Dir  Spd
km/h
Gust
km/h
Spd
kts
Gust
kts
24/11:30pm 19.9 16.4 -1.2 24 9.1 W 7 20 4 11 1003.0 1002.9 0.0
24/11:00pm 19.9 17.1 -0.7 25 9.0 WNW 4 11 2 6 1002.7 1002.6 0.0
24/10:30pm 21.0 17.2 -0.9 23 9.6 WNW 9 19 5 10 1002.8 1002.7 0.0
24/10:00pm 21.4 16.5 -0.6 23 9.8 WNW 15 30 8 16 1002.8 1002.7 0.0
24/09:30pm 21.6 16.7 -0.4 23 9.8 NW 15 28 8 15 1002.8 1002.7 0.0
24/09:00pm 21.3 16.8 -0.1 24 9.6 NW 13 28 7 15 1002.8 1002.7 0.0
24/08:30pm 21.1 17.5 0.3 25 9.3 NW 9 20 5 11 1002.8 1002.7 0.0
24/08:00pm 21.1 16.7 0.3 25 9.4 NNW 13 20 7 11 1002.5 1002.4 0.0
24/07:30pm 21.5 17.4 0.1 24 9.6 NW 11 26 6 14 1002.3 1002.2 0.0
24/07:00pm 22.0 17.2 -0.1 23 10.0 NW 15 28 8 15 1002.1 1002.0 0.0
24/06:30pm 21.9 17.9 0.4 24 9.7 NW 11 22 6 12 1001.6 1001.5 0.0
24/06:00pm 22.4 17.6 0.3 23 10.1 NW 15 26 8 14 1001.4 1001.3 0.0
24/05:30pm 23.0 16.8 -0.5 21 10.6 NW 22 46 12 25 1000.9 1000.8 0.0
24/05:00pm 23.4 19.0 0.5 22 10.6 NW 13 22 7 12 1000.5 1000.4 0.0
24/04:30pm 24.1 19.2 -0.2 20 11.1 WNW 15 32 8 17 1000.0 999.9 0.0
24/04:00pm 24.6 18.9 -0.5 19 11.5 NW 19 30 10 16 999.8 999.7 0.0
24/03:30pm 24.7 18.4 -1.2 18 11.6 NW 22 39 12 21 999.8 999.7 0.0
24/03:20pm 24.6 17.0 -2.0 17 11.8 NW 28 46 15 25 999.8 999.7 0.0
24/03:00pm 25.3 19.2 -2.3 16 12.3 WNW 20 39 11 21 999.9 999.8 0.0
24/02:36pm 25.0 17.2 -3.4 15 12.3 NW 28 56 15 30 999.7 999.6 0.0
24/02:30pm 25.4 18.1 -3.1 15 12.4 WNW 26 44 14 24 999.9 999.8 0.0
24/02:03pm 25.4 17.6 -4.0 14 12.6 NW 28 46 15 25 999.9 999.8 0.0
24/02:00pm 25.6 17.8 -3.8 14 12.8 NW 28 46 15 25 999.8 999.7 0.0
24/01:30pm 25.4 17.2 -4.0 14 12.6 NW 30 48 16 26 1000.0 999.9 0.0
24/01:00pm 25.5 17.8 -3.0 15 12.5 NW 28 56 15 30 1000.4 1000.3 0.0
24/12:30pm 25.0 16.4 -4.3 14 12.5 NW 32 57 17 31 1000.6 1000.5 0.0
24/12:00pm 24.9 16.0 -5.4 13 12.7 NW 33 59 18 32 1001.0 1000.9 0.0
24/11:54am 25.1 17.2 -5.2 13 12.7 NW 28 59 15 32 1000.9 1000.8 0.0
24/11:30am 25.2 18.4 -5.1 13 12.7 WNW 22 57 12 31 1001.4 1001.3 0.0
24/11:00am 24.1 16.7 -7.0 12 12.5 WNW 24 46 13 25 1001.5 1001.4 0.0
24/10:30am 23.4 16.6 -4.7 15 11.7 WNW 22 37 12 20 1001.6 1001.5 0.0
24/10:04am 22.9 14.9 -6.0 14 11.7 WNW 28 48 15 26 1002.2 1002.1 0.0
24/10:00am 22.8 15.9 -6.1 14 11.7 WNW 22 48 12 26 1002.2 1002.1 0.0
24/09:30am 20.5 18.8 7.5 43 6.7 SE 6 24 3 13 1002.4 1002.3 0.0
24/09:00am 18.1 18.1 12.3 69 3.2 NNE 4 7 2 4 1002.5 1002.4 0.0
24/08:30am 17.1 17.1 13.6 80 2.0 NNE 6 11 3 6 1002.5 1002.4 0.0
24/08:00am 16.5 16.0 12.7 78 2.1 NNE 7 11 4 6 1002.7 1002.6 0.0
24/07:30am 16.8 16.8 12.5 76 2.4 S 4 7 2 4 1001.9 1001.8 0.0
24/07:00am 15.8 15.8 12.4 80 1.9 SSE 4 7 2 4 1001.6 1001.5 0.0
24/06:30am 15.7 14.7 12.3 80 1.9 S 9 11 5 6 1001.4 1001.3 0.0
24/06:00am 15.9 12.9 12.1 78 2.1 S 19 24 10 13 1001.8 1001.7 0.0
24/05:30am 15.9 13.0 12.3 79 2.0 SSW 19 26 10 14 1001.8 1001.7 0.0
24/05:00am 16.1 13.1 12.5 79 2.0 SSW 20 32 11 17 1001.4 1001.3 0.0
24/04:30am 16.2 12.1 12.6 79 2.0 SSW 26 37 14 20 1000.6 1000.5 0.0
24/04:00am 16.0 12.4 12.9 82 1.7 SSW 24 35 13 19 999.2 999.1 0.0
24/03:30am 16.6 12.2 12.9 79 2.1 SSW 28 39 15 21 997.8 997.7 0.0
24/03:12am 19.4 15.9 10.1 55 5.0 SSW 19 39 10 21 996.8 996.8 0.0
24/03:00am 22.1 19.5 4.2 31 8.8 SSW 7 11 4 6 996.1 996.1 0.0
24/02:30am 22.8 20.9 4.8 31 8.9 NNE 4 9 2 5 995.8 995.8 0.0
24/02:00am 24.5 22.3 5.3 29 9.8 NNE 6 9 3 5 995.6 995.6 0.0
24/01:30am 22.9 20.7 6.2 34 8.5 N 7 9 4 5 996.1 996.1 0.0
24/01:00am 23.3 20.9 7.0 35 8.5 NNW 9 13 5 7 997.0 997.0 0.0
24/12:30am 24.0 21.9 6.7 33 9.0 N 7 13 4 7 996.6 996.6 0.0
24/12:00am 23.6 21.4 6.4 33 8.9 NNW 7 15 4 8 995.5 995.5 0.0
 
Date/Time
EST
Temp
°C
App
Temp
°C
Dew
Point
°C
Rel
Hum
%
Delta-T
°C
Wind Press
QNH
hPa
Press
MSL
hPa
Rain since
9am
mm
Dir  Spd
km/h
Gust
km/h
Spd
kts
Gust
kts
23/11:30pm 22.8 21.3 7.0 36 8.2 N 4 6 2 3 995.5 995.5 0.0
23/11:00pm 22.6 19.9 9.0 42 7.3 N 13 28 7 15 995.7 995.7 0.0
23/10:30pm 22.7 20.2 6.5 35 8.3 NNE 9 19 5 10 996.1 996.1 0.0
23/10:24pm 26.1 22.7 4.0 24 11.0 N 11 20 6 11 996.1 996.1 0.0
23/10:00pm 31.9 24.2 0.1 13 15.5 NNW 30 50 16 27 995.9 995.9 0.0
23/09:51pm 31.7 25.3 1.0 14 15.1 NNW 24 57 13 31 995.7 995.7 0.0
23/09:46pm 28.3 23.4 3.9 21 12.3 N 19 33 10 18 995.9 995.9 0.0
23/09:30pm 22.2 18.5 9.4 44 6.9 N 19 35 10 19 997.0 997.0 0.0
23/09:00pm 23.7 19.3 7.3 35 8.6 N 20 33 11 18 996.8 996.8 0.0
23/08:30pm 22.5 19.5 9.3 43 7.1 NNW 15 30 8 16 996.7 996.7 0.0
23/08:00pm 21.8 18.8 11.8 53 5.6 N 19 30 10 16 997.5 997.4 0.0
23/07:30pm 21.1 20.2 11.4 54 5.4 N 7 13 4 7 997.1 997.1 0.0
23/07:00pm 20.7 19.8 11.3 55 5.2 N 7 11 4 6 998.3 998.2 0.0
23/06:30pm 20.3 18.6 12.5 61 4.4 NNW 13 22 7 12 997.7 997.6 0.0
23/06:00pm 20.2 18.9 12.4 61 4.4 N 11 19 6 10 997.4 997.3 0.0
23/05:30pm 20.5 19.1 12.2 59 4.7 NNW 11 19 6 10 997.2 997.2 0.0
23/05:00pm 21.0 20.4 12.4 58 4.9 N 7 15 4 8 997.5 997.4 0.0
23/04:30pm 20.7 19.7 12.4 59 4.7 NNE 9 17 5 9 997.7 997.6 0.0
23/04:00pm 20.1 19.2 13.6 66 3.8 NE 11 17 6 9 998.1 998.0 0.0
23/03:30pm 20.9 18.9 12.8 60 4.6 NNE 15 24 8 13 998.5 998.4 0.0
23/03:00pm 20.7 18.2 13.4 63 4.2 NE 19 28 10 15 998.9 998.8 0.0
23/02:30pm 20.2 19.0 12.9 63 4.1 NNE 11 22 6 12 999.4 999.3 0.0
23/02:00pm 20.8 20.1 13.3 62 4.3 N 9 20 5 11 999.9 999.8 0.0
23/01:30pm 21.8 18.5 10.9 50 6.0 NNE 19 37 10 20 1000.5 1000.4 0.0
23/01:00pm 21.7 19.5 10.8 50 6.0 NE 13 22 7 12 1000.9 1000.8 0.0
23/12:30pm 21.2 19.1 11.2 53 5.5 NNE 13 24 7 13 1001.8 1001.7 0.0
23/12:00pm 22.9 19.9 7.8 38 8.0 ENE 13 22 7 12 1002.7 1002.6 0.0
23/11:30am 24.7 23.8 7.8 34 9.0 S 2 6 1 3 1003.7 1003.6 0.0
23/11:00am 22.0 20.7 9.2 44 6.9 S 6 7 3 4 1004.9 1004.8 0.0
23/10:30am 22.6 21.0 8.0 39 7.7 NNW 6 15 3 8 1005.2 1005.1 0.0
23/10:00am 24.0 21.8 5.4 30 9.4 NNE 6 7 3 4 1005.1 1005.0 0.0
23/09:30am 22.6 21.2 7.2 37 8.0 NNW 4 7 2 4 1005.6 1005.5 0.0
23/09:00am 19.6 18.8 8.0 47 6.0 N 2 7 1 4 1006.0 1005.9 0.0
23/08:30am 18.3 16.1 7.7 50 5.4 N 9 13 5 7 1006.3 1006.2 0.0
23/08:00am 18.2 16.2 8.5 53 5.0 N 9 13 5 7 1006.1 1006.0 0.0
23/07:30am 18.6 16.6 8.6 52 5.2 N 9 11 5 6 1006.2 1006.1 0.0
23/07:00am 17.6 15.2 5.2 44 6.0 N 7 11 4 6 1006.2 1006.1 0.0
23/06:30am 17.4 15.0 5.4 45 5.8 N 7 11 4 6 1006.3 1006.2 0.0
23/06:00am 17.2 14.5 5.5 46 5.7 N 9 13 5 7 1006.4 1006.3 0.0
23/05:30am 17.0 14.2 7.1 52 4.9 NNE 11 17 6 9 1006.3 1006.2 0.0
23/05:00am 16.4 14.3 8.1 58 4.2 NNE 9 13 5 7 1006.5 1006.4 0.0
23/04:30am 16.3 14.1 9.3 63 3.6 NNE 11 15 6 8 1006.6 1006.5 0.0
23/04:00am 16.2 13.7 8.4 60 4.0 NNE 11 15 6 8 1006.8 1006.7 0.0
23/03:30am 16.5 13.8 7.4 55 4.5 NNE 11 15 6 8 1007.1 1007.0 0.0
23/03:00am 16.9 14.8 8.1 56 4.5 NNE 9 15 5 8 1007.4 1007.4 0.0
23/02:30am 16.6 14.0 6.1 50 5.1 NNE 9 15 5 8 1007.6 1007.6 0.0
23/02:00am 15.8 13.5 2.6 41 6.0 NNE 4 9 2 5 1007.9 1007.9 0.0
23/01:30am 16.2 13.5 3.6 43 5.8 N 7 11 4 6 1008.2 1008.2 0.0
23/01:00am 15.7 13.3 5.3 50 5.0 N 7 13 4 7 1008.7 1008.7 0.0
23/12:30am 16.3 14.1 6.2 51 4.9 N 7 9 4 5 1009.0 1009.0 0.0
23/12:00am 17.1 15.2 7.5 53 4.8 N 7 9 4 5 1009.3 1009.3 0.0
 
Date/Time
EST
Temp
°C
App
Temp
°C
Dew
Point
°C
Rel
Hum
%
Delta-T
°C
Wind Press
QNH
hPa
Press
MSL
hPa
Rain since
9am
mm
Dir  Spd
km/h
Gust
km/h
Spd
kts
Gust
kts
22/11:30pm 16.5 14.9 8.7 60 4.0 N 7 9 4 5 1009.5 1009.5 0.0
22/11:00pm 16.8 15.1 8.5 58 4.3 N 7 9 4 5 1009.6 1009.6 0.0
22/10:30pm 16.9 14.9 8.8 59 4.2 N 9 9 5 5 1009.9 1009.9 0.0
22/10:00pm 18.3 15.7 3.0 36 7.1 NNW 6 7 3 4 1009.9 1009.9 0.0
22/09:30pm 20.2 17.2 0.6 27 8.8 N 6 9 3 5 1009.9 1009.9 0.0
22/09:00pm 21.2 17.7 1.0 26 9.2 NNW 9 13 5 7 1010.1 1010.1 0.0
22/08:30pm 18.1 15.3 5.3 43 6.2 NNW 9 13 5 7 1010.2 1010.2 0.0
22/08:00pm 18.5 16.2 4.7 40 6.6 NNE 6 11 3 6 1010.1 1010.1 0.0
22/07:30pm 19.9 17.3 4.0 35 7.6 N 7 9 4 5 1010.1 1010.1 0.0
22/07:00pm 20.9 18.4 4.9 35 7.9 N 7 11 4 6 1009.9 1009.9 0.0
22/06:30pm 21.0 18.7 5.8 37 7.6 N 7 9 4 5 1009.7 1009.7 0.0

Latest Capital City Observations: Canberra | Sydney | Melbourne | Brisbane | Adelaide | Perth | Hobart | Darwin

Other Formats:

Comma delimited format used in spreadsheet applications
http://www.bom.gov.au/fwo/IDN60903/IDN60903.94938.axf

JavaScript Object Notation format (JSON) in row-major order
http://www.bom.gov.au/fwo/IDN60903/IDN60903.94938.json